createdAt,value
2018-05-27T00:02:22.351Z,18.70
2018-05-27T00:04:49.932Z,18.70
2018-05-27T00:07:17.580Z,18.60
2018-05-27T00:09:45.152Z,18.60
2018-05-27T00:12:13.478Z,18.50
2018-05-27T00:14:41.159Z,18.50
2018-05-27T00:17:08.835Z,18.50
2018-05-27T00:19:36.473Z,18.50
2018-05-27T00:22:04.029Z,18.50
2018-05-27T00:24:32.693Z,18.50
2018-05-27T00:27:00.240Z,18.50
2018-05-27T00:29:27.911Z,18.50
2018-05-27T00:31:55.460Z,18.40
2018-05-27T00:34:23.003Z,18.50
2018-05-27T00:36:51.518Z,18.40
2018-05-27T00:39:19.171Z,18.30
2018-05-27T00:41:46.747Z,18.30
2018-05-27T00:44:14.347Z,18.30
2018-05-27T00:46:41.970Z,18.30
2018-05-27T00:49:09.509Z,18.30
2018-05-27T00:51:37.043Z,18.30
2018-05-27T00:54:04.627Z,18.30
2018-05-27T00:56:32.187Z,18.30
2018-05-27T00:59:00.764Z,18.30
2018-05-27T01:01:28.337Z,18.30
2018-05-27T01:03:55.967Z,18.30
2018-05-27T01:06:23.554Z,18.30
2018-05-27T01:08:51.247Z,18.30
2018-05-27T01:11:18.867Z,18.30
2018-05-27T01:13:46.455Z,18.30
2018-05-27T01:16:14.036Z,18.30
2018-05-27T01:18:42.407Z,18.20
2018-05-27T01:21:10.067Z,18.20
2018-05-27T01:23:37.770Z,18.20
2018-05-27T01:26:05.327Z,18.20
2018-05-27T01:28:32.895Z,18.10
2018-05-27T01:31:00.402Z,18.00
2018-05-27T01:33:28.029Z,17.90
2018-05-27T01:35:55.583Z,17.90
2018-05-27T01:38:23.199Z,17.80
2018-05-27T01:40:51.691Z,17.70
2018-05-27T01:43:20.056Z,17.60
2018-05-27T01:45:48.371Z,17.60
2018-05-27T01:48:15.903Z,17.50
2018-05-27T01:50:44.226Z,17.30
2018-05-27T01:53:11.773Z,17.30
2018-05-27T01:55:39.338Z,17.20
2018-05-27T01:58:06.877Z,17.10
2018-05-27T02:00:34.475Z,17.10
2018-05-27T02:03:03.004Z,16.90
2018-05-27T02:05:30.602Z,16.90
2018-05-27T02:07:58.231Z,16.90
2018-05-27T02:10:25.775Z,16.80
2018-05-27T02:12:54.087Z,16.80
2018-05-27T02:15:21.655Z,16.80
2018-05-27T02:17:49.182Z,16.80
2018-05-27T02:20:16.748Z,16.90
2018-05-27T02:22:44.282Z,16.90
2018-05-27T02:25:12.623Z,17.10
2018-05-27T02:27:40.161Z,17.00
2018-05-27T02:30:07.720Z,17.10
2018-05-27T02:32:35.279Z,17.10
2018-05-27T02:35:02.808Z,17.10
2018-05-27T02:37:30.439Z,17.00
2018-05-27T02:39:57.998Z,16.90
2018-05-27T02:42:26.440Z,17.00
2018-05-27T02:44:53.976Z,16.90
2018-05-27T02:47:21.661Z,16.90
2018-05-27T02:49:49.291Z,16.90
2018-05-27T02:52:16.840Z,16.90
2018-05-27T02:54:44.375Z,16.80
2018-05-27T02:57:12.872Z,16.60
2018-05-27T02:59:41.203Z,16.50
2018-05-27T03:02:08.752Z,16.50
2018-05-27T03:04:36.303Z,16.50
2018-05-27T03:07:03.870Z,16.50
2018-05-27T03:09:31.420Z,16.40
2018-05-27T03:11:58.949Z,16.30
2018-05-27T03:14:26.499Z,16.40
2018-05-27T03:16:54.827Z,16.40
2018-05-27T03:19:22.359Z,16.40
2018-05-27T03:21:49.919Z,16.40
2018-05-27T03:24:17.459Z,16.40
2018-05-27T03:26:45.159Z,16.30
2018-05-27T03:29:12.709Z,16.40
2018-05-27T03:31:40.295Z,16.40
2018-05-27T03:34:07.857Z,16.30
2018-05-27T03:36:35.410Z,16.40
2018-05-27T03:39:03.867Z,16.40
2018-05-27T03:41:31.491Z,16.40
2018-05-27T03:43:59.822Z,16.40
2018-05-27T03:46:27.343Z,16.30
2018-05-27T03:48:54.904Z,16.30
2018-05-27T03:51:22.563Z,16.30
2018-05-27T03:53:50.112Z,16.20
2018-05-27T03:56:17.663Z,16.20
2018-05-27T03:58:45.199Z,16.20
2018-05-27T04:01:13.498Z,16.20
2018-05-27T04:03:41.927Z,16.30
2018-05-27T04:06:21.529Z,16.20
2018-05-27T04:08:49.056Z,16.20
2018-05-27T04:11:17.375Z,16.20
2018-05-27T04:13:44.935Z,16.20
2018-05-27T04:16:12.599Z,16.30
2018-05-27T04:18:40.147Z,16.30
2018-05-27T04:21:07.711Z,16.30
2018-05-27T04:23:35.243Z,16.40
2018-05-27T04:26:02.770Z,16.40
2018-05-27T04:28:30.371Z,16.40
2018-05-27T04:30:58.190Z,16.40
2018-05-27T04:33:25.743Z,16.50
2018-05-27T04:35:53.347Z,16.50
2018-05-27T04:38:20.899Z,16.60
2018-05-27T04:40:49.247Z,16.70
2018-05-27T04:43:16.849Z,16.70
2018-05-27T04:45:44.447Z,16.70
2018-05-27T04:48:12.015Z,16.70
2018-05-27T04:50:39.608Z,16.80
2018-05-27T04:53:07.935Z,16.80
2018-05-27T04:55:35.498Z,16.80
2018-05-27T04:58:03.072Z,16.90
2018-05-27T05:00:30.646Z,16.90
2018-05-27T05:02:58.240Z,16.90
2018-05-27T05:05:25.803Z,16.90
2018-05-27T05:07:53.338Z,16.90
2018-05-27T05:10:21.665Z,17.00
2018-05-27T05:12:49.190Z,16.90
2018-05-27T05:15:16.747Z,17.00
2018-05-27T05:17:44.358Z,17.00
2018-05-27T05:20:11.887Z,17.00
2018-05-27T05:22:39.454Z,17.10
2018-05-27T05:25:07.012Z,17.10
2018-05-27T05:27:34.610Z,17.10
2018-05-27T05:30:02.171Z,17.10
2018-05-27T05:32:29.727Z,17.20
2018-05-27T05:34:57.439Z,17.20
2018-05-27T05:37:25.000Z,17.20
2018-05-27T05:39:52.556Z,17.30
2018-05-27T05:42:20.152Z,17.30
2018-05-27T05:44:47.717Z,17.30
2018-05-27T05:47:15.275Z,17.40
2018-05-27T05:49:42.843Z,17.40
2018-05-27T05:52:10.490Z,17.50
2018-05-27T05:54:38.048Z,17.50
2018-05-27T05:57:05.716Z,17.60
2018-05-27T05:59:33.318Z,17.60
2018-05-27T06:02:00.874Z,17.70
2018-05-27T06:04:28.438Z,17.70
2018-05-27T06:06:55.991Z,17.80
2018-05-27T06:09:23.694Z,17.80
2018-05-27T06:11:51.236Z,17.90
2018-05-27T06:14:18.776Z,17.90
2018-05-27T06:16:46.324Z,18.00
2018-05-27T06:19:13.967Z,18.00
2018-05-27T06:21:42.465Z,18.10
2018-05-27T06:24:10.012Z,18.10
2018-05-27T06:26:38.326Z,18.20
2018-05-27T06:29:05.977Z,18.20
2018-05-27T06:31:33.656Z,18.30
2018-05-27T06:34:01.209Z,18.30
2018-05-27T06:36:28.784Z,18.40
2018-05-27T06:38:57.967Z,18.50
2018-05-27T06:41:25.531Z,18.50
2018-05-27T06:43:53.085Z,18.60
2018-05-27T06:46:20.660Z,18.60
2018-05-27T06:48:48.236Z,18.70
2018-05-27T06:51:15.779Z,18.80
2018-05-27T06:53:43.310Z,18.90
2018-05-27T06:56:10.868Z,18.90
2018-05-27T06:58:38.435Z,18.90
2018-05-27T07:01:05.980Z,19.00
2018-05-27T07:03:33.525Z,19.00
2018-05-27T07:06:01.213Z,19.10
2018-05-27T07:08:28.779Z,19.10
2018-05-27T07:10:56.339Z,19.20
2018-05-27T07:13:23.876Z,19.20
2018-05-27T07:15:51.478Z,19.30
2018-05-27T07:18:19.039Z,19.40
2018-05-27T07:20:47.431Z,19.60
2018-05-27T07:23:15.059Z,19.50
2018-05-27T07:25:42.704Z,19.70
2018-05-27T07:28:10.292Z,19.70
2018-05-27T07:30:37.923Z,19.80
2018-05-27T07:33:05.580Z,19.80
2018-05-27T07:35:33.248Z,19.80
2018-05-27T07:38:00.852Z,19.90
2018-05-27T07:40:28.440Z,20.00
2018-05-27T07:42:56.051Z,20.10
2018-05-27T07:45:23.631Z,20.10
2018-05-27T07:47:51.193Z,20.20
2018-05-27T07:50:19.561Z,20.30
2018-05-27T07:52:47.142Z,20.20
2018-05-27T07:55:15.451Z,20.60
2018-05-27T07:57:43.035Z,20.60
2018-05-27T08:00:10.569Z,20.50
2018-05-27T08:02:38.144Z,20.70
2018-05-27T08:05:05.831Z,20.70
2018-05-27T08:07:33.388Z,20.80
2018-05-27T08:10:00.966Z,20.80
2018-05-27T08:12:29.293Z,20.90
2018-05-27T08:14:56.862Z,20.80
2018-05-27T08:17:24.424Z,20.80
2018-05-27T08:19:52.000Z,20.70
2018-05-27T08:22:19.525Z,20.70
2018-05-27T08:24:47.092Z,20.70
2018-05-27T08:27:14.712Z,20.80
2018-05-27T08:29:42.293Z,20.80
2018-05-27T08:32:09.907Z,20.80
2018-05-27T08:34:37.442Z,20.70
2018-05-27T08:37:05.023Z,20.70
2018-05-27T08:39:32.560Z,20.70
2018-05-27T08:42:00.143Z,20.80
2018-05-27T08:44:27.707Z,20.80
2018-05-27T08:46:55.308Z,20.90
2018-05-27T08:49:22.851Z,20.90
2018-05-27T08:51:50.452Z,21.00
2018-05-27T08:54:18.000Z,21.00
2018-05-27T08:56:45.564Z,21.10
2018-05-27T08:59:14.111Z,21.10
2018-05-27T09:01:41.804Z,21.10
2018-05-27T09:04:09.382Z,21.20
2018-05-27T09:06:36.931Z,21.30
2018-05-27T09:09:06.396Z,21.40
2018-05-27T09:11:34.173Z,21.30
2018-05-27T09:14:01.744Z,21.60
2018-05-27T09:16:29.376Z,21.60
2018-05-27T09:18:56.950Z,21.50
2018-05-27T09:21:24.512Z,21.40
2018-05-27T09:23:52.169Z,21.60
2018-05-27T09:26:19.794Z,21.70
2018-05-27T09:28:48.226Z,21.60
2018-05-27T09:31:15.764Z,21.60
2018-05-27T09:33:43.347Z,21.60
2018-05-27T09:36:11.012Z,21.50
2018-05-27T09:38:38.549Z,21.50
2018-05-27T09:41:06.116Z,21.50
2018-05-27T09:43:33.661Z,21.50
2018-05-27T09:46:02.187Z,21.70
2018-05-27T09:48:29.899Z,21.70
2018-05-27T09:50:57.463Z,21.80
2018-05-27T09:53:25.003Z,22.00
2018-05-27T09:55:52.583Z,21.90
2018-05-27T09:58:20.151Z,21.90
2018-05-27T10:00:47.733Z,22.30
2018-05-27T10:03:15.431Z,22.40
2018-05-27T10:05:43.830Z,22.20
2018-05-27T10:08:11.645Z,22.20
2018-05-27T10:10:39.200Z,22.10
2018-05-27T10:13:06.762Z,22.20
2018-05-27T10:15:34.299Z,22.30
2018-05-27T10:18:01.837Z,22.30
2018-05-27T10:20:29.436Z,22.20
2018-05-27T10:22:57.957Z,21.90
2018-05-27T10:25:25.637Z,21.90
2018-05-27T10:27:53.227Z,21.90
2018-05-27T10:30:20.772Z,21.80
2018-05-27T10:32:48.436Z,21.70
2018-05-27T10:35:15.929Z,21.60
2018-05-27T10:37:43.476Z,21.50
2018-05-27T10:40:11.284Z,21.40
2018-05-27T10:42:38.961Z,21.40
2018-05-27T10:45:06.528Z,21.50
2018-05-27T10:47:34.099Z,21.60
2018-05-27T10:50:02.454Z,21.60
2018-05-27T10:52:30.237Z,21.60
2018-05-27T10:54:57.875Z,21.70
2018-05-27T10:57:25.431Z,21.70
2018-05-27T10:59:52.999Z,21.80
2018-05-27T11:02:20.660Z,21.90
2018-05-27T11:04:48.215Z,22.30
2018-05-27T11:07:15.782Z,22.40
2018-05-27T11:09:43.443Z,22.70
2018-05-27T11:12:11.076Z,22.80
2018-05-27T11:14:38.573Z,23.00
2018-05-27T11:17:07.019Z,23.30
2018-05-27T11:19:34.583Z,23.30
2018-05-27T11:22:02.168Z,23.30
2018-05-27T11:24:29.775Z,23.40
2018-05-27T11:26:58.101Z,23.50
2018-05-27T11:29:25.848Z,23.50
2018-05-27T11:31:53.455Z,23.30
2018-05-27T11:34:21.053Z,23.50
2018-05-27T11:36:48.605Z,23.40
2018-05-27T11:39:16.932Z,23.10
2018-05-27T11:41:44.530Z,23.10
2018-05-27T11:44:12.908Z,23.00
2018-05-27T11:46:41.240Z,23.10
2018-05-27T11:49:08.780Z,23.10
2018-05-27T11:51:36.368Z,23.20
2018-05-27T11:54:03.940Z,23.30
2018-05-27T11:56:31.500Z,23.40
2018-05-27T11:58:59.079Z,23.40
2018-05-27T12:01:27.618Z,23.60
2018-05-27T12:03:55.195Z,23.60
2018-05-27T12:06:22.766Z,23.40
2018-05-27T12:08:50.438Z,23.30
2018-05-27T12:11:18.489Z,23.20
2018-05-27T12:13:46.071Z,23.20
2018-05-27T12:16:14.406Z,23.10
2018-05-27T12:18:41.968Z,23.10
2018-05-27T12:21:09.517Z,23.10
2018-05-27T12:23:37.132Z,23.00
2018-05-27T12:26:05.458Z,22.80
2018-05-27T12:28:33.017Z,22.70
2018-05-27T12:31:00.588Z,22.60
2018-05-27T12:33:28.181Z,22.60
2018-05-27T12:35:56.525Z,22.60
2018-05-27T12:38:24.128Z,22.50
2018-05-27T12:40:51.816Z,22.60
2018-05-27T12:43:19.372Z,22.60
2018-05-27T12:45:46.960Z,22.80
2018-05-27T12:48:14.590Z,22.90
2018-05-27T12:50:42.206Z,22.90
2018-05-27T12:53:09.882Z,22.90
2018-05-27T12:55:38.372Z,22.60
2018-05-27T12:58:06.089Z,22.60
2018-05-27T13:00:33.645Z,22.50
2018-05-27T13:03:01.224Z,22.50
2018-05-27T13:05:28.778Z,22.40
2018-05-27T13:07:56.350Z,22.40
2018-05-27T13:10:24.791Z,22.60
2018-05-27T13:12:52.357Z,22.60
2018-05-27T13:15:19.960Z,22.60
2018-05-27T13:17:48.330Z,22.80
2018-05-27T13:20:16.662Z,22.70
2018-05-27T13:22:44.357Z,22.70
2018-05-27T13:25:11.915Z,22.60
2018-05-27T13:27:39.483Z,22.60
2018-05-27T13:30:07.796Z,22.40
2018-05-27T13:32:35.397Z,22.40
2018-05-27T13:35:02.952Z,22.40
2018-05-27T13:37:30.538Z,22.30
2018-05-27T13:39:58.887Z,22.20
2018-05-27T13:42:26.608Z,22.20
2018-05-27T13:44:54.209Z,22.20
2018-05-27T13:47:21.773Z,22.40
2018-05-27T13:49:50.128Z,22.40
2018-05-27T13:52:17.687Z,22.40
2018-05-27T13:54:45.286Z,22.40
2018-05-27T13:57:12.881Z,22.60
2018-05-27T13:59:40.532Z,23.00
2018-05-27T14:02:08.118Z,23.30
2018-05-27T14:04:35.741Z,23.50
2018-05-27T14:07:04.082Z,24.10
2018-05-27T14:09:31.664Z,24.10
2018-05-27T14:11:59.246Z,24.20
2018-05-27T14:14:26.804Z,24.30
2018-05-27T14:16:54.378Z,24.40
2018-05-27T14:19:21.930Z,24.40
2018-05-27T14:21:49.519Z,24.40
2018-05-27T14:24:17.091Z,24.40
2018-05-27T14:26:44.655Z,24.40
2018-05-27T14:29:12.264Z,24.20
2018-05-27T14:31:39.816Z,24.10
2018-05-27T14:34:07.504Z,23.90
2018-05-27T14:36:35.081Z,23.70
2018-05-27T14:39:02.631Z,23.50
2018-05-27T14:41:30.283Z,23.40
2018-05-27T14:43:57.970Z,23.20
2018-05-27T14:46:25.521Z,23.10
2018-05-27T14:48:53.111Z,22.90
2018-05-27T14:51:20.664Z,22.70
2018-05-27T14:53:48.241Z,22.60
2018-05-27T14:56:16.607Z,22.50
2018-05-27T14:58:44.943Z,22.40
2018-05-27T15:01:12.516Z,22.40
2018-05-27T15:03:40.066Z,22.30
2018-05-27T15:06:07.669Z,22.20
2018-05-27T15:08:36.048Z,22.00
2018-05-27T15:11:04.405Z,21.90
2018-05-27T15:13:31.968Z,21.90
2018-05-27T15:15:59.658Z,21.80
2018-05-27T15:18:27.998Z,21.60
2018-05-27T15:20:55.600Z,21.60
2018-05-27T15:23:23.171Z,21.50
2018-05-27T15:25:50.747Z,21.50
2018-05-27T15:28:18.371Z,21.40
2018-05-27T15:30:46.732Z,21.20
2018-05-27T15:33:15.077Z,21.20
2018-05-27T15:35:42.645Z,21.20
2018-05-27T15:38:10.256Z,21.20
2018-05-27T15:40:37.771Z,21.10
2018-05-27T15:43:05.377Z,21.00
2018-05-27T15:45:32.991Z,21.00
2018-05-27T15:48:00.724Z,21.00
2018-05-27T15:50:28.260Z,21.00
2018-05-27T15:52:55.836Z,20.90
2018-05-27T15:55:23.397Z,20.90
2018-05-27T15:57:50.987Z,20.90
2018-05-27T16:00:18.588Z,20.90
2018-05-27T16:02:46.140Z,20.90
2018-05-27T16:05:13.739Z,20.90
2018-05-27T16:07:41.297Z,21.00
2018-05-27T16:10:08.877Z,20.90
2018-05-27T16:12:36.452Z,20.90
2018-05-27T16:15:04.030Z,21.00
2018-05-27T16:17:32.417Z,21.00
2018-05-27T16:20:00.112Z,21.00
2018-05-27T16:22:27.682Z,21.00
2018-05-27T16:24:55.339Z,21.10
2018-05-27T16:27:22.870Z,21.10
2018-05-27T16:29:50.552Z,21.10
2018-05-27T16:32:18.208Z,21.10
2018-05-27T16:34:45.771Z,21.10
2018-05-27T16:37:13.400Z,21.10
2018-05-27T16:39:40.944Z,21.10
2018-05-27T16:42:08.489Z,21.10
2018-05-27T16:44:37.014Z,21.10
2018-05-27T16:47:04.579Z,21.10
2018-05-27T16:49:32.171Z,21.10
2018-05-27T16:51:59.716Z,21.10
2018-05-27T16:54:27.276Z,21.00
2018-05-27T16:56:54.922Z,21.00
2018-05-27T16:59:22.626Z,21.00
2018-05-27T17:01:51.176Z,21.00
2018-05-27T17:04:18.789Z,20.90
2018-05-27T17:06:47.099Z,21.00
2018-05-27T17:09:14.653Z,20.90
2018-05-27T17:11:42.230Z,20.90
2018-05-27T17:14:09.877Z,20.90
2018-05-27T17:16:37.504Z,20.90
2018-05-27T17:19:05.843Z,20.90
2018-05-27T17:21:33.415Z,20.90
2018-05-27T17:24:02.472Z,20.90
2018-05-27T17:26:30.091Z,20.80
2018-05-27T17:28:58.407Z,20.80
2018-05-27T17:31:26.032Z,20.80
2018-05-27T17:33:53.740Z,20.80
2018-05-27T17:36:21.368Z,20.80
2018-05-27T17:38:48.931Z,20.80
2018-05-27T17:41:16.491Z,20.80
2018-05-27T17:43:44.094Z,20.80
2018-05-27T17:46:11.726Z,20.80
2018-05-27T17:48:39.385Z,20.80
2018-05-27T17:51:06.952Z,20.70
2018-05-27T17:53:34.522Z,20.60
2018-05-27T17:56:02.926Z,20.50
2018-05-27T17:58:30.544Z,20.50
2018-05-27T18:00:58.145Z,20.50
2018-05-27T18:03:25.722Z,20.40
2018-05-27T18:05:54.085Z,20.40
2018-05-27T18:08:22.476Z,20.40
2018-05-27T18:10:50.825Z,20.40
2018-05-27T18:13:18.449Z,20.40
2018-05-27T18:15:46.039Z,20.40
2018-05-27T18:18:13.609Z,20.40
2018-05-27T18:20:41.386Z,20.30
2018-05-27T18:23:08.961Z,20.30
2018-05-27T18:25:37.286Z,20.30
2018-05-27T18:28:04.946Z,20.30
2018-05-27T18:30:32.581Z,20.30
2018-05-27T18:33:00.123Z,20.30
2018-05-27T18:35:28.066Z,20.30
2018-05-27T18:37:56.384Z,20.30
2018-05-27T18:40:24.006Z,20.30
2018-05-27T18:42:52.484Z,20.30
2018-05-27T18:45:20.046Z,20.30
2018-05-27T18:47:48.450Z,20.20
2018-05-27T18:50:16.019Z,20.20
2018-05-27T18:52:43.602Z,20.20
2018-05-27T18:55:11.169Z,20.20
2018-05-27T18:57:38.713Z,20.20
2018-05-27T19:00:06.258Z,20.10
2018-05-27T19:02:34.763Z,20.10
2018-05-27T19:05:02.386Z,20.10
2018-05-27T19:07:29.996Z,20.10
2018-05-27T19:09:57.605Z,20.10
2018-05-27T19:12:25.238Z,20.10
2018-05-27T19:14:53.558Z,20.10
2018-05-27T19:17:21.152Z,20.10
2018-05-27T19:19:48.827Z,20.10
2018-05-27T19:22:16.366Z,20.10
2018-05-27T19:24:43.944Z,20.10
2018-05-27T19:27:12.304Z,20.10
2018-05-27T19:29:39.916Z,20.10
2018-05-27T19:32:07.736Z,20.10
2018-05-27T19:34:35.290Z,20.00
2018-05-27T19:37:02.850Z,20.00
2018-05-27T19:39:30.503Z,20.00
2018-05-27T19:41:58.042Z,20.00
2018-05-27T19:44:25.707Z,20.00
2018-05-27T19:46:53.263Z,19.90
2018-05-27T19:49:20.890Z,19.90
2018-05-27T19:51:48.429Z,19.80
2018-05-27T19:54:16.772Z,19.70
2018-05-27T19:56:44.353Z,19.70
2018-05-27T19:59:12.003Z,19.70
2018-05-27T20:01:39.548Z,19.60
2018-05-27T20:04:07.253Z,19.60
2018-05-27T20:06:35.587Z,19.50
2018-05-27T20:09:03.145Z,19.50
2018-05-27T20:11:30.771Z,19.50
2018-05-27T20:13:58.323Z,19.50
2018-05-27T20:16:25.907Z,19.50
2018-05-27T20:18:53.525Z,19.50
2018-05-27T20:21:21.904Z,19.50
2018-05-27T20:23:50.226Z,19.50
2018-05-27T20:26:17.799Z,19.50
2018-05-27T20:28:45.377Z,19.50
2018-05-27T20:31:12.948Z,19.60
2018-05-27T20:33:41.413Z,19.60
2018-05-27T20:36:08.995Z,19.50
2018-05-27T20:38:37.313Z,19.60
2018-05-27T20:41:04.891Z,19.50
2018-05-27T20:43:32.596Z,19.60
2018-05-27T20:46:00.299Z,19.50
2018-05-27T20:48:27.895Z,19.50
2018-05-27T20:50:55.440Z,19.50
2018-05-27T20:53:23.066Z,19.50
2018-05-27T20:55:50.716Z,19.50
2018-05-27T20:58:18.407Z,19.50
2018-05-27T21:00:45.970Z,19.40
2018-05-27T21:03:13.590Z,19.40
2018-05-27T21:05:42.023Z,19.30
2018-05-27T21:08:09.602Z,19.30
2018-05-27T21:10:38.033Z,19.30
2018-05-27T21:13:05.864Z,19.30
2018-05-27T21:15:33.444Z,19.30
2018-05-27T21:18:01.012Z,19.30
2018-05-27T21:20:28.571Z,19.30
2018-05-27T21:22:56.148Z,19.30
2018-05-27T21:25:23.727Z,19.30
2018-05-27T21:27:51.347Z,19.30
2018-05-27T21:30:18.934Z,19.30
2018-05-27T21:32:46.547Z,19.30
2018-05-27T21:35:14.094Z,19.20
2018-05-27T21:37:41.776Z,19.20
2018-05-27T21:40:09.341Z,19.20
2018-05-27T21:42:36.916Z,19.20
2018-05-27T21:45:04.469Z,19.10
2018-05-27T21:47:32.024Z,19.10
2018-05-27T21:49:59.643Z,19.10
2018-05-27T21:52:28.006Z,19.10
2018-05-27T21:54:56.335Z,19.10
2018-05-27T21:57:23.871Z,19.10
2018-05-27T21:59:51.447Z,19.10
2018-05-27T22:02:18.975Z,19.10
2018-05-27T22:04:47.325Z,19.10
2018-05-27T22:07:14.882Z,19.10
2018-05-27T22:09:42.460Z,19.10
2018-05-27T22:12:10.036Z,19.10
2018-05-27T22:14:37.603Z,19.10
2018-05-27T22:17:05.139Z,19.10
2018-05-27T22:19:33.490Z,19.10
2018-05-27T22:22:01.083Z,19.10
2018-05-27T22:24:29.407Z,19.10
2018-05-27T22:26:56.960Z,19.10
2018-05-27T22:29:24.528Z,19.10
2018-05-27T22:31:52.100Z,19.10
2018-05-27T22:34:19.645Z,19.10
2018-05-27T22:36:47.236Z,19.10
2018-05-27T22:39:14.793Z,19.00
2018-05-27T22:41:42.378Z,19.00
2018-05-27T22:44:10.787Z,19.00
2018-05-27T22:46:38.329Z,19.00
2018-05-27T22:49:05.891Z,19.00
2018-05-27T22:51:33.427Z,18.90
2018-05-27T22:54:00.991Z,18.90
2018-05-27T22:56:28.571Z,18.90
2018-05-27T22:58:56.114Z,18.90
2018-05-27T23:01:23.676Z,18.90
2018-05-27T23:03:51.227Z,18.90
2018-05-27T23:06:18.793Z,18.80
2018-05-27T23:08:46.339Z,18.90
2018-05-27T23:11:13.920Z,18.80
2018-05-27T23:13:41.481Z,18.80
2018-05-27T23:16:09.042Z,18.80
2018-05-27T23:18:36.627Z,18.80
2018-05-27T23:21:04.343Z,18.80
2018-05-27T23:23:32.662Z,18.80
2018-05-27T23:26:00.205Z,18.70
2018-05-27T23:28:27.775Z,18.60
2018-05-27T23:30:55.315Z,18.60
2018-05-27T23:33:22.883Z,18.60
2018-05-27T23:35:50.421Z,18.50
2018-05-27T23:38:17.986Z,18.50
2018-05-27T23:40:45.537Z,18.40
2018-05-27T23:43:13.070Z,18.40
2018-05-27T23:45:41.408Z,18.40
2018-05-27T23:48:08.944Z,18.40
2018-05-27T23:50:36.513Z,18.40
2018-05-27T23:53:04.058Z,18.40
2018-05-27T23:55:31.716Z,18.40
2018-05-27T23:57:59.266Z,18.40
